sensor_id;sensor_type;location;lat;lon;timestamp;temperature;humidity
74458;SHT31;62896;51.032;3.712;2023-07-20T00:02:41;17.3;84
74458;SHT31;62896;51.032;3.712;2023-07-20T00:06:01;17.2;85
74458;SHT31;62896;51.032;3.712;2023-07-20T00:09:21;17.2;85
74458;SHT31;62896;51.032;3.712;2023-07-20T00:12:41;17.2;85
74458;SHT31;62896;51.032;3.712;2023-07-20T00:16:01;17;86
74458;SHT31;62896;51.032;3.712;2023-07-20T00:19:22;17;86
74458;SHT31;62896;51.032;3.712;2023-07-20T00:22:41;17;86
74458;SHT31;62896;51.032;3.712;2023-07-20T00:26:01;16.8;87
74458;SHT31;62896;51.032;3.712;2023-07-20T00:29:21;16.8;87
74458;SHT31;62896;51.032;3.712;2023-07-20T00:32:41;16.8;87
74458;SHT31;62896;51.032;3.712;2023-07-20T00:36:01;16.7;88
74458;SHT31;62896;51.032;3.712;2023-07-20T00:39:21;16.7;88
74458;SHT31;62896;51.032;3.712;2023-07-20T00:42:41;16.7;88
74458;SHT31;62896;51.032;3.712;2023-07-20T00:46:01;16.6;88
74458;SHT31;62896;51.032;3.712;2023-07-20T00:49:21;16.6;88
74458;SHT31;62896;51.032;3.712;2023-07-20T00:52:41;16.6;88
74458;SHT31;62896;51.032;3.712;2023-07-20T00:56:01;16.4;89
74458;SHT31;62896;51.032;3.712;2023-07-20T00:59:21;16.4;89
74458;SHT31;62896;51.032;3.712;2023-07-20T01:02:41;16.4;89
74458;SHT31;62896;51.032;3.712;2023-07-20T01:06:04;16.3;90
74458;SHT31;62896;51.032;3.712;2023-07-20T01:09:24;16.3;90
74458;SHT31;62896;51.032;3.712;2023-07-20T01:12:42;16.3;90
74458;SHT31;62896;51.032;3.712;2023-07-20T01:16:01;16.2;90
74458;SHT31;62896;51.032;3.712;2023-07-20T01:19:21;16.2;90
74458;SHT31;62896;51.032;3.712;2023-07-20T01:22:47;16.2;90
74458;SHT31;62896;51.032;3.712;2023-07-20T01:26:08;16.2;90
74458;SHT31;62896;51.032;3.712;2023-07-20T01:29:22;16.2;90
74458;SHT31;62896;51.032;3.712;2023-07-20T01:32:42;16.2;90
74458;SHT31;62896;51.032;3.712;2023-07-20T01:36:01;16;90
74458;SHT31;62896;51.032;3.712;2023-07-20T01:39:21;16;90
74458;SHT31;62896;51.032;3.712;2023-07-20T01:42:43;16;90
74458;SHT31;62896;51.032;3.712;2023-07-20T01:46:01;15.8;91
74458;SHT31;62896;51.032;3.712;2023-07-20T01:49:21;15.8;91
74458;SHT31;62896;51.032;3.712;2023-07-20T01:52:41;15.8;91
74458;SHT31;62896;51.032;3.712;2023-07-20T01:56:01;15.8;91
74458;SHT31;62896;51.032;3.712;2023-07-20T01:59:21;15.8;91
74458;SHT31;62896;51.032;3.712;2023-07-20T02:02:41;15.8;91
74458;SHT31;62896;51.032;3.712;2023-07-20T02:06:01;15.7;92
74458;SHT31;62896;51.032;3.712;2023-07-20T02:09:21;15.7;92
74458;SHT31;62896;51.032;3.712;2023-07-20T02:12:41;15.7;92
74458;SHT31;62896;51.032;3.712;2023-07-20T02:16:01;15.7;91
74458;SHT31;62896;51.032;3.712;2023-07-20T02:19:21;15.7;91
74458;SHT31;62896;51.032;3.712;2023-07-20T02:22:41;15.7;91
74458;SHT31;62896;51.032;3.712;2023-07-20T02:26:01;15.8;91
74458;SHT31;62896;51.032;3.712;2023-07-20T02:29:21;15.8;91
74458;SHT31;62896;51.032;3.712;2023-07-20T02:32:41;15.8;91
74458;SHT31;62896;51.032;3.712;2023-07-20T02:36:01;15.8;91
74458;SHT31;62896;51.032;3.712;2023-07-20T02:39:21;15.8;91
74458;SHT31;62896;51.032;3.712;2023-07-20T02:42:41;15.8;91
74458;SHT31;62896;51.032;3.712;2023-07-20T02:46:01;15.8;91
74458;SHT31;62896;51.032;3.712;2023-07-20T02:49:22;15.8;91
74458;SHT31;62896;51.032;3.712;2023-07-20T02:52:41;15.8;91
74458;SHT31;62896;51.032;3.712;2023-07-20T02:56:02;15.8;91
74458;SHT31;62896;51.032;3.712;2023-07-20T02:59:21;15.8;91
74458;SHT31;62896;51.032;3.712;2023-07-20T03:02:42;15.8;91
74458;SHT31;62896;51.032;3.712;2023-07-20T03:06:02;15.8;91
74458;SHT31;62896;51.032;3.712;2023-07-20T03:09:21;15.8;91
74458;SHT31;62896;51.032;3.712;2023-07-20T03:12:41;15.8;91
74458;SHT31;62896;51.032;3.712;2023-07-20T03:16:01;15.8;91
74458;SHT31;62896;51.032;3.712;2023-07-20T03:19:21;15.8;91
74458;SHT31;62896;51.032;3.712;2023-07-20T03:22:41;15.8;91
74458;SHT31;62896;51.032;3.712;2023-07-20T03:26:01;15.9;91
74458;SHT31;62896;51.032;3.712;2023-07-20T03:29:21;15.9;91
74458;SHT31;62896;51.032;3.712;2023-07-20T03:32:41;15.9;91
74458;SHT31;62896;51.032;3.712;2023-07-20T03:36:02;15.9;91
74458;SHT31;62896;51.032;3.712;2023-07-20T03:39:22;15.9;91
74458;SHT31;62896;51.032;3.712;2023-07-20T03:42:42;15.9;91
74458;SHT31;62896;51.032;3.712;2023-07-20T03:46:02;15.9;91
74458;SHT31;62896;51.032;3.712;2023-07-20T03:49:22;15.9;91
74458;SHT31;62896;51.032;3.712;2023-07-20T03:52:42;15.9;91
74458;SHT31;62896;51.032;3.712;2023-07-20T03:56:02;15.8;91
74458;SHT31;62896;51.032;3.712;2023-07-20T03:59:22;15.8;91
74458;SHT31;62896;51.032;3.712;2023-07-20T04:02:42;15.8;91
74458;SHT31;62896;51.032;3.712;2023-07-20T04:06:02;15.7;91
74458;SHT31;62896;51.032;3.712;2023-07-20T04:09:22;15.7;91
74458;SHT31;62896;51.032;3.712;2023-07-20T04:12:42;15.7;91
74458;SHT31;62896;51.032;3.712;2023-07-20T04:16:02;15.8;91
74458;SHT31;62896;51.032;3.712;2023-07-20T04:19:22;15.8;91
74458;SHT31;62896;51.032;3.712;2023-07-20T04:22:42;15.8;91
74458;SHT31;62896;51.032;3.712;2023-07-20T04:26:02;15.8;92
74458;SHT31;62896;51.032;3.712;2023-07-20T04:29:22;15.8;92
74458;SHT31;62896;51.032;3.712;2023-07-20T04:32:42;15.8;92
74458;SHT31;62896;51.032;3.712;2023-07-20T04:36:02;16;91
74458;SHT31;62896;51.032;3.712;2023-07-20T04:39:22;16;91
74458;SHT31;62896;51.032;3.712;2023-07-20T04:42:42;16;91
74458;SHT31;62896;51.032;3.712;2023-07-20T04:46:02;16.1;91
74458;SHT31;62896;51.032;3.712;2023-07-20T04:49:22;16.1;91
74458;SHT31;62896;51.032;3.712;2023-07-20T04:52:42;16.1;91
74458;SHT31;62896;51.032;3.712;2023-07-20T04:56:02;16.2;90
74458;SHT31;62896;51.032;3.712;2023-07-20T04:59:22;16.2;90
74458;SHT31;62896;51.032;3.712;2023-07-20T05:02:42;16.2;90
74458;SHT31;62896;51.032;3.712;2023-07-20T05:06:02;16.3;90
74458;SHT31;62896;51.032;3.712;2023-07-20T05:09:22;16.3;90
74458;SHT31;62896;51.032;3.712;2023-07-20T05:12:42;16.3;90
74458;SHT31;62896;51.032;3.712;2023-07-20T05:16:02;16.4;89
74458;SHT31;62896;51.032;3.712;2023-07-20T05:19:22;16.4;89
74458;SHT31;62896;51.032;3.712;2023-07-20T05:22:42;16.4;89
74458;SHT31;62896;51.032;3.712;2023-07-20T05:26:02;16.5;89
74458;SHT31;62896;51.032;3.712;2023-07-20T05:29:22;16.5;89
74458;SHT31;62896;51.032;3.712;2023-07-20T05:32:42;16.5;89
74458;SHT31;62896;51.032;3.712;2023-07-20T05:36:02;16.7;88
74458;SHT31;62896;51.032;3.712;2023-07-20T05:39:22;16.7;88
74458;SHT31;62896;51.032;3.712;2023-07-20T05:42:42;16.7;88
74458;SHT31;62896;51.032;3.712;2023-07-20T05:46:02;16.8;87
74458;SHT31;62896;51.032;3.712;2023-07-20T05:49:22;16.8;87
74458;SHT31;62896;51.032;3.712;2023-07-20T05:52:42;16.8;87
74458;SHT31;62896;51.032;3.712;2023-07-20T05:56:02;17;87
74458;SHT31;62896;51.032;3.712;2023-07-20T05:59:22;17;87
74458;SHT31;62896;51.032;3.712;2023-07-20T06:02:42;17;87
74458;SHT31;62896;51.032;3.712;2023-07-20T06:06:02;17.1;87
74458;SHT31;62896;51.032;3.712;2023-07-20T06:09:22;17.1;87
74458;SHT31;62896;51.032;3.712;2023-07-20T06:12:42;17.1;87
74458;SHT31;62896;51.032;3.712;2023-07-20T06:16:02;17.4;85
74458;SHT31;62896;51.032;3.712;2023-07-20T06:19:22;17.4;85
74458;SHT31;62896;51.032;3.712;2023-07-20T06:22:42;17.4;85
74458;SHT31;62896;51.032;3.712;2023-07-20T06:26:02;17.6;82
74458;SHT31;62896;51.032;3.712;2023-07-20T06:29:22;17.6;82
74458;SHT31;62896;51.032;3.712;2023-07-20T06:32:42;17.6;82
74458;SHT31;62896;51.032;3.712;2023-07-20T06:36:02;17.8;81
74458;SHT31;62896;51.032;3.712;2023-07-20T06:39:22;17.8;81
74458;SHT31;62896;51.032;3.712;2023-07-20T06:42:42;17.8;81
74458;SHT31;62896;51.032;3.712;2023-07-20T06:46:02;18.3;79
74458;SHT31;62896;51.032;3.712;2023-07-20T06:49:25;18.3;79
74458;SHT31;62896;51.032;3.712;2023-07-20T06:52:42;18.3;79
74458;SHT31;62896;51.032;3.712;2023-07-20T06:56:02;18.4;78
74458;SHT31;62896;51.032;3.712;2023-07-20T06:59:22;18.4;78
74458;SHT31;62896;51.032;3.712;2023-07-20T07:02:42;18.4;78
74458;SHT31;62896;51.032;3.712;2023-07-20T07:06:02;18.8;75
74458;SHT31;62896;51.032;3.712;2023-07-20T07:09:22;18.8;75
74458;SHT31;62896;51.032;3.712;2023-07-20T07:12:42;18.8;75
74458;SHT31;62896;51.032;3.712;2023-07-20T07:16:02;18.8;75
74458;SHT31;62896;51.032;3.712;2023-07-20T07:19:22;18.8;75
74458;SHT31;62896;51.032;3.712;2023-07-20T07:22:42;18.8;75
74458;SHT31;62896;51.032;3.712;2023-07-20T07:26:02;18.7;75
74458;SHT31;62896;51.032;3.712;2023-07-20T07:29:22;18.7;75
74458;SHT31;62896;51.032;3.712;2023-07-20T07:32:42;18.7;75
74458;SHT31;62896;51.032;3.712;2023-07-20T07:36:02;18.7;74
74458;SHT31;62896;51.032;3.712;2023-07-20T07:39:22;18.7;74
74458;SHT31;62896;51.032;3.712;2023-07-20T07:42:42;18.7;74
74458;SHT31;62896;51.032;3.712;2023-07-20T07:46:02;18.9;73
74458;SHT31;62896;51.032;3.712;2023-07-20T07:49:22;18.9;73
74458;SHT31;62896;51.032;3.712;2023-07-20T07:52:42;18.9;73
74458;SHT31;62896;51.032;3.712;2023-07-20T07:56:02;19.2;72
74458;SHT31;62896;51.032;3.712;2023-07-20T07:59:22;19.2;72
74458;SHT31;62896;51.032;3.712;2023-07-20T08:02:42;19.2;72
74458;SHT31;62896;51.032;3.712;2023-07-20T08:06:02;19.6;69
74458;SHT31;62896;51.032;3.712;2023-07-20T08:09:22;19.6;69
74458;SHT31;62896;51.032;3.712;2023-07-20T08:12:42;19.6;69
74458;SHT31;62896;51.032;3.712;2023-07-20T08:16:02;20;65
74458;SHT31;62896;51.032;3.712;2023-07-20T08:19:22;20;65
74458;SHT31;62896;51.032;3.712;2023-07-20T08:22:42;20;65
74458;SHT31;62896;51.032;3.712;2023-07-20T08:26:02;20.5;65
74458;SHT31;62896;51.032;3.712;2023-07-20T08:29:22;20.5;65
74458;SHT31;62896;51.032;3.712;2023-07-20T08:32:42;20.5;65
74458;SHT31;62896;51.032;3.712;2023-07-20T08:36:02;20.5;66
74458;SHT31;62896;51.032;3.712;2023-07-20T08:39:22;20.5;66
74458;SHT31;62896;51.032;3.712;2023-07-20T08:42:42;20.5;66
74458;SHT31;62896;51.032;3.712;2023-07-20T08:46:02;20.6;66
74458;SHT31;62896;51.032;3.712;2023-07-20T08:49:22;20.6;66
74458;SHT31;62896;51.032;3.712;2023-07-20T08:52:42;20.6;66
74458;SHT31;62896;51.032;3.712;2023-07-20T08:56:02;20.6;65
74458;SHT31;62896;51.032;3.712;2023-07-20T08:59:22;20.6;65
74458;SHT31;62896;51.032;3.712;2023-07-20T09:02:42;20.6;65
74458;SHT31;62896;51.032;3.712;2023-07-20T09:06:02;20.7;65
74458;SHT31;62896;51.032;3.712;2023-07-20T09:09:22;20.7;65
74458;SHT31;62896;51.032;3.712;2023-07-20T09:12:42;20.7;65
74458;SHT31;62896;51.032;3.712;2023-07-20T09:16:02;20.7;65
74458;SHT31;62896;51.032;3.712;2023-07-20T09:19:22;20.7;65
74458;SHT31;62896;51.032;3.712;2023-07-20T09:22:42;20.7;65
74458;SHT31;62896;51.032;3.712;2023-07-20T09:26:09;20.9;64
74458;SHT31;62896;51.032;3.712;2023-07-20T09:29:22;20.9;64
74458;SHT31;62896;51.032;3.712;2023-07-20T09:32:42;20.9;64
74458;SHT31;62896;51.032;3.712;2023-07-20T09:36:02;21.2;62
74458;SHT31;62896;51.032;3.712;2023-07-20T09:39:22;21.2;62
74458;SHT31;62896;51.032;3.712;2023-07-20T09:42:42;21.2;62
74458;SHT31;62896;51.032;3.712;2023-07-20T09:46:02;21.4;60
74458;SHT31;62896;51.032;3.712;2023-07-20T09:49:22;21.4;60
74458;SHT31;62896;51.032;3.712;2023-07-20T09:52:42;21.4;60
74458;SHT31;62896;51.032;3.712;2023-07-20T09:56:02;21.6;61
74458;SHT31;62896;51.032;3.712;2023-07-20T09:59:22;21.6;61
74458;SHT31;62896;51.032;3.712;2023-07-20T10:02:42;21.6;61
74458;SHT31;62896;51.032;3.712;2023-07-20T10:06:04;21.7;60
74458;SHT31;62896;51.032;3.712;2023-07-20T10:09:22;21.7;60
74458;SHT31;62896;51.032;3.712;2023-07-20T10:12:42;21.7;60
74458;SHT31;62896;51.032;3.712;2023-07-20T10:16:02;21.6;61
74458;SHT31;62896;51.032;3.712;2023-07-20T10:19:22;21.6;61
74458;SHT31;62896;51.032;3.712;2023-07-20T10:22:42;21.6;61
74458;SHT31;62896;51.032;3.712;2023-07-20T10:26:02;21.5;60
74458;SHT31;62896;51.032;3.712;2023-07-20T10:29:22;21.5;60
74458;SHT31;62896;51.032;3.712;2023-07-20T10:32:42;21.5;60
74458;SHT31;62896;51.032;3.712;2023-07-20T10:36:03;21.9;58
74458;SHT31;62896;51.032;3.712;2023-07-20T10:39:22;21.9;58
74458;SHT31;62896;51.032;3.712;2023-07-20T10:42:42;21.9;58
74458;SHT31;62896;51.032;3.712;2023-07-20T10:46:02;22.4;55
74458;SHT31;62896;51.032;3.712;2023-07-20T10:49:22;22.4;55
74458;SHT31;62896;51.032;3.712;2023-07-20T10:52:42;22.4;55
74458;SHT31;62896;51.032;3.712;2023-07-20T10:56:05;22.5;54
74458;SHT31;62896;51.032;3.712;2023-07-20T10:59:36;22.5;54
74458;SHT31;62896;51.032;3.712;2023-07-20T11:02:43;22.5;54
74458;SHT31;62896;51.032;3.712;2023-07-20T11:06:29;22.5;54
74458;SHT31;62896;51.032;3.712;2023-07-20T11:09:22;22.5;54
74458;SHT31;62896;51.032;3.712;2023-07-20T11:12:42;22.5;54
74458;SHT31;62896;51.032;3.712;2023-07-20T11:16:02;22.3;56
74458;SHT31;62896;51.032;3.712;2023-07-20T11:19:22;22.3;56
74458;SHT31;62896;51.032;3.712;2023-07-20T11:22:42;22.3;56
74458;SHT31;62896;51.032;3.712;2023-07-20T11:26:02;21.9;57
74458;SHT31;62896;51.032;3.712;2023-07-20T11:29:23;21.9;57
74458;SHT31;62896;51.032;3.712;2023-07-20T11:32:47;21.9;57
74458;SHT31;62896;51.032;3.712;2023-07-20T11:36:02;21.9;57
74458;SHT31;62896;51.032;3.712;2023-07-20T11:39:22;21.9;57
74458;SHT31;62896;51.032;3.712;2023-07-20T11:42:42;21.9;57
74458;SHT31;62896;51.032;3.712;2023-07-20T11:46:02;21.9;57
74458;SHT31;62896;51.032;3.712;2023-07-20T11:49:22;21.9;57
74458;SHT31;62896;51.032;3.712;2023-07-20T11:52:42;21.9;57
74458;SHT31;62896;51.032;3.712;2023-07-20T11:56:02;21.6;59
74458;SHT31;62896;51.032;3.712;2023-07-20T11:59:22;21.6;59
74458;SHT31;62896;51.032;3.712;2023-07-20T12:02:42;21.6;59
74458;SHT31;62896;51.032;3.712;2023-07-20T12:06:06;21.8;59
74458;SHT31;62896;51.032;3.712;2023-07-20T12:09:22;21.8;59
74458;SHT31;62896;51.032;3.712;2023-07-20T12:12:42;21.8;59
74458;SHT31;62896;51.032;3.712;2023-07-20T12:16:06;21.9;59
74458;SHT31;62896;51.032;3.712;2023-07-20T12:19:24;21.9;59
74458;SHT31;62896;51.032;3.712;2023-07-20T12:22:43;21.9;59
74458;SHT31;62896;51.032;3.712;2023-07-20T12:26:02;22.2;60
74458;SHT31;62896;51.032;3.712;2023-07-20T12:29:22;22.2;60
74458;SHT31;62896;51.032;3.712;2023-07-20T12:32:42;22.2;60
74458;SHT31;62896;51.032;3.712;2023-07-20T12:36:02;22.1;62
74458;SHT31;62896;51.032;3.712;2023-07-20T12:39:22;22.1;62
74458;SHT31;62896;51.032;3.712;2023-07-20T12:42:42;22.1;62
74458;SHT31;62896;51.032;3.712;2023-07-20T12:46:02;22.8;58
74458;SHT31;62896;51.032;3.712;2023-07-20T12:49:22;22.8;58
74458;SHT31;62896;51.032;3.712;2023-07-20T12:52:42;22.8;58
74458;SHT31;62896;51.032;3.712;2023-07-20T12:56:02;23.8;54
74458;SHT31;62896;51.032;3.712;2023-07-20T12:59:22;23.8;54
74458;SHT31;62896;51.032;3.712;2023-07-20T13:02:42;23.8;54
74458;SHT31;62896;51.032;3.712;2023-07-20T13:06:02;24.5;52
74458;SHT31;62896;51.032;3.712;2023-07-20T13:09:22;24.5;52
74458;SHT31;62896;51.032;3.712;2023-07-20T13:12:42;24.5;52
74458;SHT31;62896;51.032;3.712;2023-07-20T13:16:02;24.9;50
74458;SHT31;62896;51.032;3.712;2023-07-20T13:19:22;24.9;50
74458;SHT31;62896;51.032;3.712;2023-07-20T13:22:42;24.9;50
74458;SHT31;62896;51.032;3.712;2023-07-20T13:26:02;23.6;52
74458;SHT31;62896;51.032;3.712;2023-07-20T13:29:22;23.6;52
74458;SHT31;62896;51.032;3.712;2023-07-20T13:32:42;23.6;52
74458;SHT31;62896;51.032;3.712;2023-07-20T13:36:02;23.1;51
74458;SHT31;62896;51.032;3.712;2023-07-20T13:39:22;23.1;51
74458;SHT31;62896;51.032;3.712;2023-07-20T13:42:42;23.1;51
74458;SHT31;62896;51.032;3.712;2023-07-20T13:46:02;22.6;53
74458;SHT31;62896;51.032;3.712;2023-07-20T13:49:22;22.6;53
74458;SHT31;62896;51.032;3.712;2023-07-20T13:52:42;22.6;53
74458;SHT31;62896;51.032;3.712;2023-07-20T13:56:02;22.4;54
74458;SHT31;62896;51.032;3.712;2023-07-20T13:59:22;22.4;54
74458;SHT31;62896;51.032;3.712;2023-07-20T14:02:42;22.4;54
74458;SHT31;62896;51.032;3.712;2023-07-20T14:06:02;22;57
74458;SHT31;62896;51.032;3.712;2023-07-20T14:09:22;22;57
74458;SHT31;62896;51.032;3.712;2023-07-20T14:12:42;22;57
74458;SHT31;62896;51.032;3.712;2023-07-20T14:16:02;20.8;73
74458;SHT31;62896;51.032;3.712;2023-07-20T14:19:22;20.8;73
74458;SHT31;62896;51.032;3.712;2023-07-20T14:22:42;20.8;73
74458;SHT31;62896;51.032;3.712;2023-07-20T14:26:02;19.8;80
74458;SHT31;62896;51.032;3.712;2023-07-20T14:29:22;19.8;80
74458;SHT31;62896;51.032;3.712;2023-07-20T14:32:42;19.8;80
74458;SHT31;62896;51.032;3.712;2023-07-20T14:36:02;19.6;83
74458;SHT31;62896;51.032;3.712;2023-07-20T14:39:22;19.6;83
74458;SHT31;62896;51.032;3.712;2023-07-20T14:42:42;19.6;83
74458;SHT31;62896;51.032;3.712;2023-07-20T14:46:02;19.3;82
74458;SHT31;62896;51.032;3.712;2023-07-20T14:49:22;19.3;82
74458;SHT31;62896;51.032;3.712;2023-07-20T14:52:42;19.3;82
74458;SHT31;62896;51.032;3.712;2023-07-20T14:56:02;19.2;82
74458;SHT31;62896;51.032;3.712;2023-07-20T14:59:22;19.2;82
74458;SHT31;62896;51.032;3.712;2023-07-20T15:02:42;19.2;82
74458;SHT31;62896;51.032;3.712;2023-07-20T15:06:02;18.8;82
74458;SHT31;62896;51.032;3.712;2023-07-20T15:09:22;18.8;82
74458;SHT31;62896;51.032;3.712;2023-07-20T15:12:42;18.8;82
74458;SHT31;62896;51.032;3.712;2023-07-20T15:16:02;18.8;86
74458;SHT31;62896;51.032;3.712;2023-07-20T15:19:22;18.8;86
74458;SHT31;62896;51.032;3.712;2023-07-20T15:22:42;18.8;86
74458;SHT31;62896;51.032;3.712;2023-07-20T15:26:02;19;85
74458;SHT31;62896;51.032;3.712;2023-07-20T15:29:22;19;85
74458;SHT31;62896;51.032;3.712;2023-07-20T15:32:42;19;85
74458;SHT31;62896;51.032;3.712;2023-07-20T15:36:02;19.2;86
74458;SHT31;62896;51.032;3.712;2023-07-20T15:39:22;19.2;86
74458;SHT31;62896;51.032;3.712;2023-07-20T15:42:42;19.2;86
74458;SHT31;62896;51.032;3.712;2023-07-20T15:46:08;19.4;85
74458;SHT31;62896;51.032;3.712;2023-07-20T15:49:22;19.4;85
74458;SHT31;62896;51.032;3.712;2023-07-20T15:52:42;19.4;85
74458;SHT31;62896;51.032;3.712;2023-07-20T15:56:02;20.9;79
74458;SHT31;62896;51.032;3.712;2023-07-20T15:59:22;20.9;79
74458;SHT31;62896;51.032;3.712;2023-07-20T16:02:42;20.9;79
74458;SHT31;62896;51.032;3.712;2023-07-20T16:06:02;22.3;75
74458;SHT31;62896;51.032;3.712;2023-07-20T16:09:22;22.3;75
74458;SHT31;62896;51.032;3.712;2023-07-20T16:12:42;22.3;75
74458;SHT31;62896;51.032;3.712;2023-07-20T16:16:02;23.4;68
74458;SHT31;62896;51.032;3.712;2023-07-20T16:19:22;23.4;68
74458;SHT31;62896;51.032;3.712;2023-07-20T16:22:42;23.4;68
74458;SHT31;62896;51.032;3.712;2023-07-20T16:26:02;23.1;65
74458;SHT31;62896;51.032;3.712;2023-07-20T16:29:22;23.1;65
74458;SHT31;62896;51.032;3.712;2023-07-20T16:32:42;23.1;65
74458;SHT31;62896;51.032;3.712;2023-07-20T16:36:02;21.4;69
74458;SHT31;62896;51.032;3.712;2023-07-20T16:39:22;21.4;69
74458;SHT31;62896;51.032;3.712;2023-07-20T16:42:42;21.4;69
74458;SHT31;62896;51.032;3.712;2023-07-20T16:46:03;20.8;71
74458;SHT31;62896;51.032;3.712;2023-07-20T16:49:22;20.8;71
74458;SHT31;62896;51.032;3.712;2023-07-20T16:52:42;20.8;71
74458;SHT31;62896;51.032;3.712;2023-07-20T16:56:02;20.8;73
74458;SHT31;62896;51.032;3.712;2023-07-20T16:59:22;20.8;73
74458;SHT31;62896;51.032;3.712;2023-07-20T17:02:42;20.8;73
74458;SHT31;62896;51.032;3.712;2023-07-20T17:06:02;20.7;73
74458;SHT31;62896;51.032;3.712;2023-07-20T17:09:22;20.7;73
74458;SHT31;62896;51.032;3.712;2023-07-20T17:12:42;20.7;73
74458;SHT31;62896;51.032;3.712;2023-07-20T17:16:02;20.7;72
74458;SHT31;62896;51.032;3.712;2023-07-20T17:19:22;20.7;72
74458;SHT31;62896;51.032;3.712;2023-07-20T17:22:42;20.7;72
74458;SHT31;62896;51.032;3.712;2023-07-20T17:26:02;20.7;72
74458;SHT31;62896;51.032;3.712;2023-07-20T17:29:22;20.7;72
74458;SHT31;62896;51.032;3.712;2023-07-20T17:32:42;20.7;72
74458;SHT31;62896;51.032;3.712;2023-07-20T17:36:02;20.5;71
74458;SHT31;62896;51.032;3.712;2023-07-20T17:39:22;20.5;71
74458;SHT31;62896;51.032;3.712;2023-07-20T17:42:42;20.5;71
74458;SHT31;62896;51.032;3.712;2023-07-20T17:46:02;20.3;73
74458;SHT31;62896;51.032;3.712;2023-07-20T17:49:22;20.3;73
74458;SHT31;62896;51.032;3.712;2023-07-20T17:52:42;20.3;73
74458;SHT31;62896;51.032;3.712;2023-07-20T17:56:02;20.2;74
74458;SHT31;62896;51.032;3.712;2023-07-20T17:59:22;20.2;74
74458;SHT31;62896;51.032;3.712;2023-07-20T18:02:42;20.2;74
74458;SHT31;62896;51.032;3.712;2023-07-20T18:06:04;20.2;75
74458;SHT31;62896;51.032;3.712;2023-07-20T18:09:22;20.2;75
74458;SHT31;62896;51.032;3.712;2023-07-20T18:12:42;20.2;75
74458;SHT31;62896;51.032;3.712;2023-07-20T18:16:02;20.2;74
74458;SHT31;62896;51.032;3.712;2023-07-20T18:19:22;20.2;74
74458;SHT31;62896;51.032;3.712;2023-07-20T18:22:42;20.2;74
74458;SHT31;62896;51.032;3.712;2023-07-20T18:26:02;20.2;75
74458;SHT31;62896;51.032;3.712;2023-07-20T18:29:22;20.2;75
74458;SHT31;62896;51.032;3.712;2023-07-20T18:32:43;20.2;75
74458;SHT31;62896;51.032;3.712;2023-07-20T18:36:02;20.2;74
74458;SHT31;62896;51.032;3.712;2023-07-20T18:39:22;20.2;74
74458;SHT31;62896;51.032;3.712;2023-07-20T18:42:42;20.2;74
74458;SHT31;62896;51.032;3.712;2023-07-20T18:46:02;20.1;75
74458;SHT31;62896;51.032;3.712;2023-07-20T18:49:22;20.1;75
74458;SHT31;62896;51.032;3.712;2023-07-20T18:52:42;20.1;75
74458;SHT31;62896;51.032;3.712;2023-07-20T18:56:02;19.8;75
74458;SHT31;62896;51.032;3.712;2023-07-20T18:59:22;19.8;75
74458;SHT31;62896;51.032;3.712;2023-07-20T19:02:42;19.8;75
74458;SHT31;62896;51.032;3.712;2023-07-20T19:06:02;19.6;76
74458;SHT31;62896;51.032;3.712;2023-07-20T19:09:22;19.6;76
74458;SHT31;62896;51.032;3.712;2023-07-20T19:12:42;19.6;76
74458;SHT31;62896;51.032;3.712;2023-07-20T19:16:02;19.5;77
74458;SHT31;62896;51.032;3.712;2023-07-20T19:19:22;19.5;77
74458;SHT31;62896;51.032;3.712;2023-07-20T19:22:42;19.5;77
74458;SHT31;62896;51.032;3.712;2023-07-20T19:26:05;19.3;77
74458;SHT31;62896;51.032;3.712;2023-07-20T19:29:22;19.3;77
74458;SHT31;62896;51.032;3.712;2023-07-20T19:32:42;19.3;77
74458;SHT31;62896;51.032;3.712;2023-07-20T19:36:02;19;79
74458;SHT31;62896;51.032;3.712;2023-07-20T19:39:22;19;79
74458;SHT31;62896;51.032;3.712;2023-07-20T19:42:42;19;79
74458;SHT31;62896;51.032;3.712;2023-07-20T19:46:02;18.8;80
74458;SHT31;62896;51.032;3.712;2023-07-20T19:49:22;18.8;80
74458;SHT31;62896;51.032;3.712;2023-07-20T19:52:42;18.8;80
74458;SHT31;62896;51.032;3.712;2023-07-20T19:56:02;18.4;82
74458;SHT31;62896;51.032;3.712;2023-07-20T19:59:22;18.4;82
74458;SHT31;62896;51.032;3.712;2023-07-20T20:02:42;18.4;82
74458;SHT31;62896;51.032;3.712;2023-07-20T20:06:02;18.3;83
74458;SHT31;62896;51.032;3.712;2023-07-20T20:09:22;18.3;83
74458;SHT31;62896;51.032;3.712;2023-07-20T20:12:42;18.3;83
74458;SHT31;62896;51.032;3.712;2023-07-20T20:16:03;18.1;85
74458;SHT31;62896;51.032;3.712;2023-07-20T20:19:22;18.1;85
74458;SHT31;62896;51.032;3.712;2023-07-20T20:22:42;18.1;85
74458;SHT31;62896;51.032;3.712;2023-07-20T20:26:02;17.9;85
74458;SHT31;62896;51.032;3.712;2023-07-20T20:29:22;17.9;85
74458;SHT31;62896;51.032;3.712;2023-07-20T20:32:42;17.9;85
74458;SHT31;62896;51.032;3.712;2023-07-20T20:36:02;17.7;86
74458;SHT31;62896;51.032;3.712;2023-07-20T20:39:22;17.7;86
74458;SHT31;62896;51.032;3.712;2023-07-20T20:42:42;17.7;86
74458;SHT31;62896;51.032;3.712;2023-07-20T20:46:02;17.7;86
74458;SHT31;62896;51.032;3.712;2023-07-20T20:49:22;17.7;86
74458;SHT31;62896;51.032;3.712;2023-07-20T20:52:42;17.7;86
74458;SHT31;62896;51.032;3.712;2023-07-20T20:56:02;17.6;86
74458;SHT31;62896;51.032;3.712;2023-07-20T20:59:22;17.6;86
74458;SHT31;62896;51.032;3.712;2023-07-20T21:02:42;17.6;86
74458;SHT31;62896;51.032;3.712;2023-07-20T21:06:02;17.5;87
74458;SHT31;62896;51.032;3.712;2023-07-20T21:09:22;17.5;87
74458;SHT31;62896;51.032;3.712;2023-07-20T21:12:42;17.5;87
74458;SHT31;62896;51.032;3.712;2023-07-20T21:16:02;17.4;87
74458;SHT31;62896;51.032;3.712;2023-07-20T21:19:22;17.4;87
74458;SHT31;62896;51.032;3.712;2023-07-20T21:22:42;17.4;87
74458;SHT31;62896;51.032;3.712;2023-07-20T21:26:02;17.3;88
74458;SHT31;62896;51.032;3.712;2023-07-20T21:29:22;17.3;88
74458;SHT31;62896;51.032;3.712;2023-07-20T21:32:42;17.3;88
74458;SHT31;62896;51.032;3.712;2023-07-20T21:36:02;17.1;88
74458;SHT31;62896;51.032;3.712;2023-07-20T21:39:22;17.1;88
74458;SHT31;62896;51.032;3.712;2023-07-20T21:42:42;17.1;88
74458;SHT31;62896;51.032;3.712;2023-07-20T21:46:02;17;89
74458;SHT31;62896;51.032;3.712;2023-07-20T21:49:22;17;89
74458;SHT31;62896;51.032;3.712;2023-07-20T21:52:42;17;89
74458;SHT31;62896;51.032;3.712;2023-07-20T21:56:02;17;89
74458;SHT31;62896;51.032;3.712;2023-07-20T21:59:22;17;89
74458;SHT31;62896;51.032;3.712;2023-07-20T22:02:42;17;89
74458;SHT31;62896;51.032;3.712;2023-07-20T22:06:02;16.9;89
74458;SHT31;62896;51.032;3.712;2023-07-20T22:09:22;16.9;89
74458;SHT31;62896;51.032;3.712;2023-07-20T22:12:42;16.9;89
74458;SHT31;62896;51.032;3.712;2023-07-20T22:16:02;16.9;90
74458;SHT31;62896;51.032;3.712;2023-07-20T22:19:22;16.9;90
74458;SHT31;62896;51.032;3.712;2023-07-20T22:22:42;16.9;90
74458;SHT31;62896;51.032;3.712;2023-07-20T22:26:02;16.9;90
74458;SHT31;62896;51.032;3.712;2023-07-20T22:29:22;16.9;90
74458;SHT31;62896;51.032;3.712;2023-07-20T22:32:42;16.9;90